createdAt,value
2016-02-06T00:00:43.282Z,7.6
2016-02-06T00:01:43.224Z,7.6
2016-02-06T00:02:43.180Z,7.6
2016-02-06T00:03:43.120Z,7.6
2016-02-06T00:04:43.058Z,7.6
2016-02-06T00:05:43.013Z,7.5
2016-02-06T00:06:42.953Z,7.5
2016-02-06T00:07:42.897Z,7.5
2016-02-06T00:08:42.837Z,7.5
2016-02-06T00:09:42.793Z,7.5
2016-02-06T00:10:42.732Z,7.5
2016-02-06T00:11:42.688Z,7.5
2016-02-06T00:12:42.629Z,7.5
2016-02-06T00:13:42.569Z,7.5
2016-02-06T00:14:42.510Z,7.5
2016-02-06T00:15:42.466Z,7.5
2016-02-06T00:16:42.406Z,7.5
2016-02-06T00:17:42.363Z,7.5
2016-02-06T00:18:42.302Z,7.5
2016-02-06T00:19:42.243Z,7.5
2016-02-06T00:20:42.184Z,7.5
2016-02-06T00:21:42.140Z,7.5
2016-02-06T00:22:42.080Z,7.5
2016-02-06T00:23:42.020Z,7.4
2016-02-06T00:24:41.976Z,7.4
2016-02-06T00:25:41.917Z,7.4
2016-02-06T00:26:41.872Z,7.4
2016-02-06T00:27:41.813Z,7.4
2016-02-06T00:28:41.753Z,7.4
2016-02-06T00:29:41.693Z,7.4
2016-02-06T00:30:41.649Z,7.4
2016-02-06T00:31:41.590Z,7.4
2016-02-06T00:32:41.529Z,7.4
2016-02-06T00:33:41.475Z,7.4
2016-02-06T00:34:41.431Z,7.4
2016-02-06T00:35:41.388Z,7.4
2016-02-06T00:36:41.328Z,7.4
2016-02-06T00:37:41.268Z,7.4
2016-02-06T00:38:41.209Z,7.3
2016-02-06T00:39:41.165Z,7.4
2016-02-06T00:40:41.104Z,7.4
2016-02-06T00:41:41.060Z,7.4
2016-02-06T00:42:41.000Z,7.4
2016-02-06T00:43:40.941Z,7.3
2016-02-06T00:44:40.896Z,7.3
2016-02-06T00:45:40.837Z,7.4
2016-02-06T00:46:40.780Z,7.5
2016-02-06T00:47:40.721Z,7.5
2016-02-06T00:48:40.677Z,7.6
2016-02-06T00:49:40.616Z,7.5
2016-02-06T00:50:40.573Z,7.6
2016-02-06T00:51:40.529Z,7.5
2016-02-06T00:52:40.453Z,7.5
2016-02-06T00:53:40.394Z,7.5
2016-02-06T00:54:40.350Z,7.5
2016-02-06T00:55:40.290Z,7.4
2016-02-06T00:56:40.230Z,7.4
2016-02-06T00:57:40.186Z,7.4
2016-02-06T00:58:40.126Z,7.3
2016-02-06T00:59:40.066Z,7.3
2016-02-06T01:00:40.022Z,7.3
2016-02-06T01:01:39.962Z,7.3
2016-02-06T01:02:39.918Z,7.3
2016-02-06T01:03:39.847Z,7.3
2016-02-06T01:04:39.798Z,7.2
2016-02-06T01:05:39.743Z,7.3
2016-02-06T01:06:39.686Z,7.2
2016-02-06T01:07:39.641Z,7.2
2016-02-06T01:08:39.582Z,7.2
2016-02-06T01:09:39.538Z,7.2
2016-02-06T01:10:39.478Z,7.1
2016-02-06T01:11:39.434Z,7.1
2016-02-06T01:12:39.374Z,7.1
2016-02-06T01:13:39.313Z,7.1
2016-02-06T01:14:39.271Z,7
2016-02-06T01:15:39.211Z,7
2016-02-06T01:16:39.151Z,7
2016-02-06T01:17:39.096Z,7
2016-02-06T01:18:39.036Z,7
2016-02-06T01:19:38.992Z,7
2016-02-06T01:20:38.932Z,7
2016-02-06T01:21:38.888Z,7
2016-02-06T01:22:38.829Z,7
2016-02-06T01:23:38.768Z,7
2016-02-06T01:24:38.724Z,6.9
2016-02-06T01:25:38.665Z,7
2016-02-06T01:26:38.604Z,7
2016-02-06T01:27:38.547Z,6.9
2016-02-06T01:28:38.503Z,7
2016-02-06T01:29:38.442Z,7
2016-02-06T01:30:38.398Z,7
2016-02-06T01:31:38.338Z,7
2016-02-06T01:32:38.278Z,6.9
2016-02-06T01:33:38.226Z,6.9
2016-02-06T01:34:38.168Z,6.9
2016-02-06T01:35:38.123Z,6.9
2016-02-06T01:36:38.064Z,6.9
2016-02-06T01:37:38.003Z,6.9
2016-02-06T01:38:37.959Z,6.8
2016-02-06T01:39:37.900Z,6.8
2016-02-06T01:40:37.856Z,6.8
2016-02-06T01:41:37.796Z,6.8
2016-02-06T01:42:37.736Z,6.8
2016-02-06T01:43:37.691Z,6.7
2016-02-06T01:44:37.633Z,6.7
2016-02-06T01:45:37.572Z,6.7
2016-02-06T01:46:37.513Z,6.7
2016-02-06T01:47:37.468Z,6.7
2016-02-06T01:48:37.408Z,6.7
2016-02-06T01:49:37.349Z,6.6
2016-02-06T01:50:37.305Z,6.5
2016-02-06T01:51:37.244Z,6.5
2016-02-06T01:52:37.185Z,6.5
2016-02-06T01:53:37.140Z,6.5
2016-02-06T01:54:37.081Z,6.5
2016-02-06T01:55:37.037Z,6.5
2016-02-06T01:56:36.977Z,6.5
2016-02-06T01:57:36.917Z,6.5
2016-02-06T01:58:36.857Z,6.4
2016-02-06T01:59:36.812Z,6.4
2016-02-06T02:00:36.770Z,6.4
2016-02-06T02:01:36.694Z,6.4
2016-02-06T02:02:36.650Z,6.4
2016-02-06T02:03:36.591Z,6.3
2016-02-06T02:04:36.531Z,6.4
2016-02-06T02:05:36.487Z,6.3
2016-02-06T02:06:42.694Z,6.3
2016-02-06T02:07:36.367Z,6.2
2016-02-06T02:08:36.324Z,6.2
2016-02-06T02:09:36.263Z,6.2
2016-02-06T02:10:36.205Z,6.1
2016-02-06T02:11:36.160Z,6.1
2016-02-06T02:12:36.100Z,6.1
2016-02-06T02:13:36.043Z,6.1
2016-02-06T02:14:35.983Z,6.1
2016-02-06T02:15:35.938Z,6.1
2016-02-06T02:16:35.879Z,6.1
2016-02-06T02:17:35.835Z,6.1
2016-02-06T02:18:35.774Z,6.1
2016-02-06T02:19:35.715Z,6.1
2016-02-06T02:20:35.655Z,6.1
2016-02-06T02:21:35.612Z,6.1
2016-02-06T02:22:35.551Z,6
2016-02-06T02:23:35.492Z,6
2016-02-06T02:24:35.431Z,6
2016-02-06T02:25:35.387Z,6
2016-02-06T02:26:35.333Z,6
2016-02-06T02:27:35.272Z,6
2016-02-06T02:28:35.213Z,5.9
2016-02-06T02:29:35.168Z,5.9
2016-02-06T02:30:35.108Z,5.9
2016-02-06T02:31:35.056Z,5.9
2016-02-06T02:32:35.011Z,5.8
2016-02-06T02:33:34.948Z,5.8
2016-02-06T02:34:34.889Z,5.8
2016-02-06T02:35:34.829Z,5.9
2016-02-06T02:36:34.784Z,5.9
2016-02-06T02:37:34.725Z,5.9
2016-02-06T02:38:34.681Z,5.9
2016-02-06T02:39:34.621Z,5.8
2016-02-06T02:40:34.562Z,5.9
2016-02-06T02:41:34.503Z,5.8
2016-02-06T02:42:34.443Z,5.8
2016-02-06T02:43:34.399Z,5.8
2016-02-06T02:44:34.339Z,5.8
2016-02-06T02:45:34.279Z,5.7
2016-02-06T02:46:34.221Z,5.7
2016-02-06T02:47:34.177Z,5.8
2016-02-06T02:48:34.116Z,5.8
2016-02-06T02:49:34.057Z,5.8
2016-02-06T02:50:34.012Z,5.8
2016-02-06T02:51:33.952Z,5.8
2016-02-06T02:52:33.893Z,5.8
2016-02-06T02:53:33.833Z,5.8
2016-02-06T02:54:33.788Z,5.9
2016-02-06T02:55:33.729Z,5.9
2016-02-06T02:56:33.668Z,5.9
2016-02-06T02:57:33.626Z,5.9
2016-02-06T02:58:33.565Z,5.9
2016-02-06T02:59:33.507Z,5.9
2016-02-06T03:00:33.446Z,5.9
2016-02-06T03:01:33.402Z,5.9
2016-02-06T03:02:33.343Z,5.9
2016-02-06T03:03:33.288Z,5.8
2016-02-06T03:04:33.228Z,5.8
2016-02-06T03:05:33.184Z,5.8
2016-02-06T03:06:33.123Z,5.8
2016-02-06T03:07:33.081Z,5.8
2016-02-06T03:08:33.006Z,5.8
2016-02-06T03:09:32.946Z,5.8
2016-02-06T03:10:32.902Z,5.7
2016-02-06T03:11:32.842Z,5.7
2016-02-06T03:12:32.783Z,5.7
2016-02-06T03:13:32.723Z,5.7
2016-02-06T03:14:32.680Z,5.7
2016-02-06T03:15:32.621Z,5.7
2016-02-06T03:16:32.560Z,5.8
2016-02-06T03:17:32.517Z,5.9
2016-02-06T03:18:32.457Z,5.9
2016-02-06T03:19:32.397Z,5.9
2016-02-06T03:20:32.355Z,5.9
2016-02-06T03:21:32.295Z,6
2016-02-06T03:22:32.235Z,6
2016-02-06T03:23:32.176Z,6
2016-02-06T03:24:32.131Z,6.1
2016-02-06T03:25:32.072Z,6.1
2016-02-06T03:26:32.027Z,6.1
2016-02-06T03:27:31.968Z,6.1
2016-02-06T03:28:31.909Z,6.3
2016-02-06T03:29:31.849Z,6.3
2016-02-06T03:30:31.804Z,6.4
2016-02-06T03:31:31.745Z,6.4
2016-02-06T03:32:31.703Z,6.5
2016-02-06T03:33:31.628Z,6.5
2016-02-06T03:34:31.583Z,6.5
2016-02-06T03:35:31.524Z,6.5
2016-02-06T03:36:31.480Z,6.6
2016-02-06T03:37:31.421Z,6.6
2016-02-06T03:38:31.361Z,6.6
2016-02-06T03:39:31.300Z,6.6
2016-02-06T03:40:31.243Z,6.6
2016-02-06T03:41:31.200Z,6.6
2016-02-06T03:42:31.140Z,6.7
2016-02-06T03:43:31.081Z,6.7
2016-02-06T03:44:31.020Z,6.7
2016-02-06T03:45:30.976Z,6.7
2016-02-06T03:46:30.917Z,6.7
2016-02-06T03:47:30.872Z,6.8
2016-02-06T03:48:30.812Z,6.8
2016-02-06T03:49:30.753Z,6.8
2016-02-06T03:50:30.692Z,6.9
2016-02-06T03:51:30.648Z,7
2016-02-06T03:52:30.589Z,7
2016-02-06T03:53:30.531Z,7
2016-02-06T03:54:30.472Z,7
2016-02-06T03:55:30.412Z,7
2016-02-06T03:56:30.368Z,7
2016-02-06T03:57:30.308Z,7
2016-02-06T03:58:30.249Z,7
2016-02-06T03:59:30.204Z,7.1
2016-02-06T04:00:30.144Z,7.1
2016-02-06T04:01:30.091Z,7.1
2016-02-06T04:02:30.030Z,7.1
2016-02-06T04:03:29.971Z,7.1
2016-02-06T04:04:29.927Z,7.1
2016-02-06T04:05:29.866Z,7.2
2016-02-06T04:06:29.810Z,7.1
2016-02-06T04:07:29.750Z,7.1
2016-02-06T04:08:29.691Z,7.2
2016-02-06T04:09:29.646Z,7.2
2016-02-06T04:10:29.586Z,7.2
2016-02-06T04:11:29.527Z,7.2
2016-02-06T04:12:29.467Z,7.2
2016-02-06T04:13:29.422Z,7.2
2016-02-06T04:14:29.349Z,7.2
2016-02-06T04:15:29.304Z,7.2
2016-02-06T04:16:29.245Z,7.2
2016-02-06T04:17:29.185Z,7.3
2016-02-06T04:18:29.126Z,7.3
2016-02-06T04:19:29.068Z,7.3
2016-02-06T04:20:29.024Z,7.3
2016-02-06T04:21:28.966Z,7.3
2016-02-06T04:22:28.906Z,7.3
2016-02-06T04:23:28.846Z,7.4
2016-02-06T04:24:28.787Z,7.4
2016-02-06T04:25:28.742Z,7.4
2016-02-06T04:26:28.683Z,7.4
2016-02-06T04:27:28.622Z,7.4
2016-02-06T04:28:28.563Z,7.4
2016-02-06T04:29:28.521Z,7.4
2016-02-06T04:30:28.461Z,7.4
2016-02-06T04:31:28.401Z,7.4
2016-02-06T04:32:28.341Z,7.4
2016-02-06T04:33:28.298Z,7.4
2016-02-06T04:34:28.238Z,7.4
2016-02-06T04:35:28.178Z,7.4
2016-02-06T04:36:28.118Z,7.4
2016-02-06T04:37:28.058Z,7.4
2016-02-06T04:38:27.999Z,7.5
2016-02-06T04:39:27.955Z,7.5
2016-02-06T04:40:27.896Z,7.5
2016-02-06T04:41:27.835Z,7.5
2016-02-06T04:42:27.776Z,7.4
2016-02-06T04:43:27.732Z,7.5
2016-02-06T04:44:27.672Z,7.5
2016-02-06T04:45:27.627Z,7.5
2016-02-06T04:46:27.552Z,7.5
2016-02-06T04:47:27.508Z,7.5
2016-02-06T04:48:27.449Z,7.5
2016-02-06T04:49:27.389Z,7.5
2016-02-06T04:50:27.346Z,7.5
2016-02-06T04:51:27.285Z,7.6
2016-02-06T04:52:27.228Z,7.6
2016-02-06T04:53:27.168Z,7.6
2016-02-06T04:54:27.123Z,7.5
2016-02-06T04:55:27.067Z,7.6
2016-02-06T04:56:27.007Z,7.6
2016-02-06T04:57:26.962Z,7.7
2016-02-06T04:58:26.898Z,7.6
2016-02-06T04:59:26.838Z,7.6
2016-02-06T05:00:26.794Z,7.6
2016-02-06T05:01:26.734Z,7.6
2016-02-06T05:02:26.674Z,7.6
2016-02-06T05:03:26.630Z,7.6
2016-02-06T05:04:26.571Z,7.6
2016-02-06T05:05:26.511Z,7.6
2016-02-06T05:06:26.451Z,7.6
2016-02-06T05:07:26.406Z,7.6
2016-02-06T05:08:26.349Z,7.6
2016-02-06T05:09:26.304Z,7.6
2016-02-06T05:10:26.261Z,7.6
2016-02-06T05:11:26.185Z,7.6
2016-02-06T05:12:26.125Z,7.6
2016-02-06T05:13:26.081Z,7.6
2016-02-06T05:14:26.022Z,7.6
2016-02-06T05:15:25.962Z,7.6
2016-02-06T05:16:25.918Z,7.6
2016-02-06T05:17:25.858Z,7.6
2016-02-06T05:18:25.798Z,7.6
2016-02-06T05:19:25.738Z,7.6
2016-02-06T05:20:25.695Z,7.7
2016-02-06T05:21:25.636Z,7.8
2016-02-06T05:22:25.575Z,7.7
2016-02-06T05:23:25.531Z,7.8
2016-02-06T05:24:25.472Z,7.7
2016-02-06T05:25:25.412Z,7.8
2016-02-06T05:26:25.356Z,7.7
2016-02-06T05:27:25.311Z,7.8
2016-02-06T05:28:25.251Z,7.8
2016-02-06T05:29:25.187Z,7.7
2016-02-06T05:30:25.144Z,7.8
2016-02-06T05:31:25.083Z,7.8
2016-02-06T05:32:25.023Z,7.7
2016-02-06T05:33:24.965Z,7.7
2016-02-06T05:34:24.906Z,7.6
2016-02-06T05:35:24.862Z,7.7
2016-02-06T05:36:24.803Z,7.7
2016-02-06T05:37:24.742Z,7.6
2016-02-06T05:38:24.697Z,7.7
2016-02-06T05:39:24.638Z,7.7
2016-02-06T05:40:24.579Z,7.7
2016-02-06T05:41:24.522Z,7.7
2016-02-06T05:42:24.477Z,7.7
2016-02-06T05:43:24.417Z,7.7
2016-02-06T05:44:24.358Z,7.7
2016-02-06T05:45:24.298Z,7.7
2016-02-06T05:46:24.254Z,7.7
2016-02-06T05:47:24.195Z,7.6
2016-02-06T05:48:24.135Z,7.6
2016-02-06T05:49:24.076Z,7.6
2016-02-06T05:50:24.032Z,7.6
2016-02-06T05:51:23.972Z,7.7
2016-02-06T05:52:23.912Z,7.7
2016-02-06T05:53:23.868Z,7.6
2016-02-06T05:54:23.811Z,7.6
2016-02-06T05:55:23.750Z,7.6
2016-02-06T05:56:23.691Z,7.6
2016-02-06T05:57:23.647Z,7.6
2016-02-06T05:58:23.582Z,7.6
2016-02-06T05:59:23.540Z,7.7
2016-02-06T06:00:23.481Z,7.6
2016-02-06T06:01:23.421Z,7.6
2016-02-06T06:02:23.363Z,7.6
2016-02-06T06:03:23.319Z,7.6
2016-02-06T06:04:23.258Z,7.6
2016-02-06T06:05:23.199Z,7.6
2016-02-06T06:06:23.155Z,7.6
2016-02-06T06:07:23.096Z,7.6
2016-02-06T06:08:23.051Z,7.5
2016-02-06T06:09:22.976Z,7.5
2016-02-06T06:10:22.931Z,7.6
2016-02-06T06:11:22.871Z,7.5
2016-02-06T06:12:22.812Z,7.5
2016-02-06T06:13:22.752Z,7.5
2016-02-06T06:14:22.707Z,7.5
2016-02-06T06:15:22.648Z,7.5
2016-02-06T06:16:22.587Z,7.5
2016-02-06T06:17:22.685Z,7.5
2016-02-06T06:18:22.484Z,7.5
2016-02-06T06:19:22.424Z,7.4
2016-02-06T06:20:22.367Z,7.4
2016-02-06T06:21:22.324Z,7.4
2016-02-06T06:22:22.264Z,7.4
2016-02-06T06:23:22.205Z,7.4
2016-02-06T06:24:22.144Z,7.4
2016-02-06T06:25:22.163Z,7.4
2016-02-06T06:26:22.041Z,7.3
2016-02-06T06:27:21.985Z,7.3
2016-02-06T06:28:21.941Z,7.3
2016-02-06T06:29:21.865Z,7.3
2016-02-06T06:30:21.809Z,7.2
2016-02-06T06:31:21.749Z,7.2
2016-02-06T06:32:21.705Z,7.2
2016-02-06T06:33:21.646Z,7.2
2016-02-06T06:34:21.585Z,7.1
2016-02-06T06:35:21.526Z,7.1
2016-02-06T06:36:21.528Z,7.2
2016-02-06T06:37:21.422Z,7.2
2016-02-06T06:38:21.362Z,7.2
2016-02-06T06:39:21.303Z,7.2
2016-02-06T06:40:21.259Z,7.2
2016-02-06T06:41:21.199Z,7.2
2016-02-06T06:42:21.140Z,7.2
2016-02-06T06:43:21.080Z,7.2
2016-02-06T06:44:21.035Z,7.1
2016-02-06T06:45:20.976Z,7.1
2016-02-06T06:46:20.915Z,7.1
2016-02-06T06:47:20.856Z,7.2
2016-02-06T06:48:20.816Z,7.2
2016-02-06T06:49:20.755Z,7.2
2016-02-06T06:50:20.696Z,7.2
2016-02-06T06:51:20.715Z,7.2
2016-02-06T06:52:20.592Z,7.2
2016-02-06T06:53:20.534Z,7.2
2016-02-06T06:54:20.489Z,7.1
2016-02-06T06:55:20.414Z,7
2016-02-06T06:56:20.512Z,7.1
2016-02-06T06:57:20.358Z,7
2016-02-06T06:58:20.251Z,7
2016-02-06T06:59:20.192Z,7
2016-02-06T07:00:20.147Z,7
2016-02-06T07:01:20.285Z,7
2016-02-06T07:02:20.054Z,7.1
2016-02-06T07:03:19.996Z,7.1
2016-02-06T07:04:19.967Z,7.1
2016-02-06T07:05:19.877Z,7
2016-02-06T07:06:19.816Z,7
2016-02-06T07:07:19.758Z,6.9
2016-02-06T07:08:19.697Z,6.9
2016-02-06T07:09:19.654Z,6.9
2016-02-06T07:10:19.594Z,6.9
2016-02-06T07:11:19.534Z,6.9
2016-02-06T07:12:19.490Z,6.8
2016-02-06T07:13:19.462Z,6.8
2016-02-06T07:14:19.387Z,6.8
2016-02-06T07:15:19.326Z,6.8
2016-02-06T07:16:19.267Z,6.8
2016-02-06T07:17:19.223Z,6.7
2016-02-06T07:18:19.163Z,6.8
2016-02-06T07:19:19.260Z,6.8
2016-02-06T07:20:19.043Z,6.8
2016-02-06T07:21:19.001Z,6.8
2016-02-06T07:22:18.940Z,6.8
2016-02-06T07:23:18.928Z,6.8
2016-02-06T07:24:18.821Z,6.8
2016-02-06T07:25:18.777Z,6.8
2016-02-06T07:26:18.718Z,6.7
2016-02-06T07:27:18.738Z,6.8
2016-02-06T07:28:18.616Z,6.7
2016-02-06T07:29:18.574Z,6.8
2016-02-06T07:30:18.498Z,6.8
2016-02-06T07:31:18.469Z,6.9
2016-02-06T07:32:18.409Z,6.9
2016-02-06T07:33:18.338Z,6.9
2016-02-06T07:34:18.279Z,6.9
2016-02-06T07:35:18.235Z,6.9
2016-02-06T07:36:18.174Z,6.9
2016-02-06T07:37:18.115Z,6.9
2016-02-06T07:38:18.055Z,6.9
2016-02-06T07:39:18.010Z,6.9
2016-02-06T07:40:17.951Z,6.9
2016-02-06T07:41:17.907Z,6.9
2016-02-06T07:42:17.847Z,6.9
2016-02-06T07:43:17.787Z,6.9
2016-02-06T07:44:17.728Z,6.9
2016-02-06T07:45:17.687Z,7
2016-02-06T07:46:17.612Z,7
2016-02-06T07:47:17.568Z,7
2016-02-06T07:48:17.507Z,7
2016-02-06T07:49:17.448Z,7
2016-02-06T07:50:17.407Z,7
2016-02-06T07:51:17.349Z,7
2016-02-06T07:52:17.241Z,6.9
2016-02-06T07:53:17.180Z,6.9
2016-02-06T07:54:17.152Z,7
2016-02-06T07:55:17.076Z,6.9
2016-02-06T07:56:16.961Z,7
2016-02-06T07:57:16.895Z,7
2016-02-06T07:58:16.844Z,6.9
2016-02-06T07:59:16.888Z,6.9
2016-02-06T08:00:17.732Z,7
2016-02-06T08:01:16.669Z,6.9
2016-02-06T08:02:16.622Z,6.9
2016-02-06T08:03:16.548Z,6.9
2016-02-06T08:04:16.486Z,6.9
2016-02-06T08:06:17.443Z,7
2016-02-06T08:07:17.054Z,7
2016-02-06T08:09:16.560Z,7
2016-02-06T08:11:16.549Z,7
2016-02-06T08:15:15.980Z,7
2016-02-06T08:16:16.889Z,7.1
2016-02-06T08:17:17.126Z,7.1
2016-02-06T08:19:16.569Z,7.1
2016-02-06T08:22:16.425Z,7.1
2016-02-06T08:23:15.519Z,7.1
2016-02-06T08:25:15.369Z,7.2
2016-02-06T08:26:15.324Z,7.2
2016-02-06T08:27:15.264Z,7.2
2016-02-06T08:28:15.204Z,7.2
2016-02-06T08:29:15.363Z,7.2
2016-02-06T08:30:15.101Z,7.1
2016-02-06T08:32:15.393Z,7.1
2016-02-06T08:33:14.942Z,7.1
2016-02-06T08:34:14.883Z,7.2
2016-02-06T08:35:14.824Z,7.2
2016-02-06T08:36:14.779Z,7.2
2016-02-06T08:38:14.674Z,7.3
2016-02-06T08:39:14.615Z,7.3
2016-02-06T08:40:14.555Z,7.3
2016-02-06T08:42:14.585Z,7.3
2016-02-06T08:43:14.399Z,7.3
2016-02-06T08:44:14.340Z,7.4
2016-02-06T08:45:14.297Z,7.4
2016-02-06T08:46:14.486Z,7.4
2016-02-06T08:48:14.119Z,7.4
2016-02-06T08:49:14.075Z,7.4
2016-02-06T08:50:14.016Z,7.5
2016-02-06T08:51:15.580Z,7.5
2016-02-06T08:52:15.007Z,7.4
2016-02-06T08:53:13.870Z,7.5
2016-02-06T08:54:13.812Z,7.5
2016-02-06T08:55:13.753Z,7.5
2016-02-06T08:56:13.912Z,7.5
2016-02-06T08:58:13.604Z,7.5
2016-02-06T08:59:13.529Z,7.5
2016-02-06T09:00:13.484Z,7.6
2016-02-06T09:03:13.325Z,7.5
2016-02-06T09:04:13.276Z,7.6
2016-02-06T09:05:13.216Z,7.6
2016-02-06T09:08:13.069Z,7.6
2016-02-06T09:09:13.009Z,7.6
2016-02-06T09:10:12.951Z,7.6
2016-02-06T09:11:13.531Z,7.6
2016-02-06T09:12:14.096Z,7.6
2016-02-06T09:14:12.742Z,7.5
2016-02-06T09:15:12.698Z,7.6
2016-02-06T09:16:12.640Z,7.6
2016-02-06T09:17:12.580Z,7.6
2016-02-06T09:18:12.520Z,7.6
2016-02-06T09:19:12.475Z,7.6
2016-02-06T09:20:12.422Z,7.6
2016-02-06T09:21:12.377Z,7.6
2016-02-06T09:22:12.317Z,7.6
2016-02-06T09:23:12.255Z,7.6
2016-02-06T09:24:12.196Z,7.6
2016-02-06T09:25:12.152Z,7.6
2016-02-06T09:26:12.092Z,7.6
2016-02-06T09:27:12.189Z,7.6
2016-02-06T09:28:11.973Z,7.6
2016-02-06T09:29:11.929Z,7.6
2016-02-06T09:30:11.870Z,7.6
2016-02-06T09:31:11.810Z,7.6
2016-02-06T09:32:11.766Z,7.6
2016-02-06T09:33:11.707Z,7.6
2016-02-06T09:34:11.646Z,7.6
2016-02-06T09:35:11.587Z,7.6
2016-02-06T09:36:11.528Z,7.7
2016-02-06T09:37:11.468Z,7.7
2016-02-06T09:38:11.424Z,7.6
2016-02-06T09:39:11.365Z,7.7
2016-02-06T09:40:11.335Z,7.6
2016-02-06T09:41:11.261Z,7.6
2016-02-06T09:42:11.216Z,7.6
2016-02-06T09:43:11.142Z,7.6
2016-02-06T09:44:11.083Z,7.6
2016-02-06T09:45:11.039Z,7.7
2016-02-06T09:46:10.963Z,7.6
2016-02-06T09:47:10.919Z,7.6
2016-02-06T09:48:10.859Z,7.7
2016-02-06T09:49:10.800Z,7.6
2016-02-06T09:50:10.755Z,7.7
